sensor_id;sensor_type;location;lat;lon;timestamp;P1;durP1;ratioP1;P2;durP2;ratioP2
42598;SDS011;28225;42.714;23.860;2022-08-07T00:01:40;11.20;;;6.95;;
42598;SDS011;28225;42.714;23.860;2022-08-07T00:04:05;7.53;;;5.80;;
42598;SDS011;28225;42.714;23.860;2022-08-07T00:06:31;6.28;;;5.53;;
42598;SDS011;28225;42.714;23.860;2022-08-07T00:08:57;13.25;;;6.43;;
42598;SDS011;28225;42.714;23.860;2022-08-07T00:11:23;12.45;;;7.15;;
42598;SDS011;28225;42.714;23.860;2022-08-07T00:13:48;8.48;;;7.65;;
42598;SDS011;28225;42.714;23.860;2022-08-07T00:16:14;10.75;;;6.93;;
42598;SDS011;28225;42.714;23.860;2022-08-07T00:18:39;9.63;;;6.72;;
42598;SDS011;28225;42.714;23.860;2022-08-07T00:21:06;8.95;;;6.93;;
42598;SDS011;28225;42.714;23.860;2022-08-07T00:23:33;7.43;;;6.63;;
42598;SDS011;28225;42.714;23.860;2022-08-07T00:25:59;9.18;;;7.45;;
42598;SDS011;28225;42.714;23.860;2022-08-07T00:28:26;9.18;;;6.53;;
42598;SDS011;28225;42.714;23.860;2022-08-07T00:30:52;7.05;;;6.35;;
42598;SDS011;28225;42.714;23.860;2022-08-07T00:33:18;8.65;;;6.00;;
42598;SDS011;28225;42.714;23.860;2022-08-07T00:35:43;7.90;;;6.25;;
42598;SDS011;28225;42.714;23.860;2022-08-07T00:38:09;9.35;;;6.93;;
42598;SDS011;28225;42.714;23.860;2022-08-07T00:40:35;7.00;;;6.25;;
42598;SDS011;28225;42.714;23.860;2022-08-07T00:43:01;8.02;;;6.82;;
42598;SDS011;28225;42.714;23.860;2022-08-07T00:45:27;10.70;;;7.40;;
42598;SDS011;28225;42.714;23.860;2022-08-07T00:47:52;8.82;;;7.00;;
42598;SDS011;28225;42.714;23.860;2022-08-07T00:50:18;9.38;;;6.72;;
42598;SDS011;28225;42.714;23.860;2022-08-07T00:52:43;8.88;;;6.95;;
42598;SDS011;28225;42.714;23.860;2022-08-07T00:55:09;8.75;;;7.00;;
42598;SDS011;28225;42.714;23.860;2022-08-07T00:57:35;8.38;;;6.78;;
42598;SDS011;28225;42.714;23.860;2022-08-07T01:00:02;12.25;;;7.03;;
42598;SDS011;28225;42.714;23.860;2022-08-07T01:02:29;11.95;;;7.82;;
42598;SDS011;28225;42.714;23.860;2022-08-07T01:04:55;8.52;;;7.15;;
42598;SDS011;28225;42.714;23.860;2022-08-07T01:07:21;8.38;;;7.50;;
42598;SDS011;28225;42.714;23.860;2022-08-07T01:09:47;9.05;;;7.03;;
42598;SDS011;28225;42.714;23.860;2022-08-07T01:12:13;10.98;;;7.25;;
42598;SDS011;28225;42.714;23.860;2022-08-07T01:14:39;10.82;;;7.53;;
42598;SDS011;28225;42.714;23.860;2022-08-07T01:17:04;8.38;;;6.90;;
42598;SDS011;28225;42.714;23.860;2022-08-07T01:19:30;9.43;;;7.53;;
42598;SDS011;28225;42.714;23.860;2022-08-07T01:21:56;10.57;;;7.38;;
42598;SDS011;28225;42.714;23.860;2022-08-07T01:24:22;9.45;;;7.00;;
42598;SDS011;28225;42.714;23.860;2022-08-07T01:26:49;12.93;;;7.03;;
42598;SDS011;28225;42.714;23.860;2022-08-07T01:29:14;7.93;;;6.68;;
42598;SDS011;28225;42.714;23.860;2022-08-07T01:31:40;8.55;;;7.22;;
42598;SDS011;28225;42.714;23.860;2022-08-07T01:34:06;7.47;;;6.18;;
42598;SDS011;28225;42.714;23.860;2022-08-07T01:36:31;7.22;;;6.53;;
42598;SDS011;28225;42.714;23.860;2022-08-07T01:38:57;7.65;;;6.47;;
42598;SDS011;28225;42.714;23.860;2022-08-07T01:41:23;7.75;;;6.95;;
42598;SDS011;28225;42.714;23.860;2022-08-07T01:43:49;7.30;;;6.20;;
42598;SDS011;28225;42.714;23.860;2022-08-07T01:46:15;10.65;;;6.57;;
42598;SDS011;28225;42.714;23.860;2022-08-07T01:48:42;6.95;;;6.25;;
42598;SDS011;28225;42.714;23.860;2022-08-07T01:51:10;7.30;;;6.28;;
42598;SDS011;28225;42.714;23.860;2022-08-07T01:53:37;7.55;;;6.78;;
42598;SDS011;28225;42.714;23.860;2022-08-07T01:56:06;7.78;;;7.05;;
42598;SDS011;28225;42.714;23.860;2022-08-07T01:58:37;10.07;;;6.63;;
42598;SDS011;28225;42.714;23.860;2022-08-07T02:01:10;8.48;;;6.88;;
42598;SDS011;28225;42.714;23.860;2022-08-07T02:03:42;7.97;;;7.10;;
42598;SDS011;28225;42.714;23.860;2022-08-07T02:06:12;7.57;;;6.57;;
42598;SDS011;28225;42.714;23.860;2022-08-07T02:08:39;7.68;;;6.88;;
42598;SDS011;28225;42.714;23.860;2022-08-07T02:11:07;7.68;;;6.38;;
42598;SDS011;28225;42.714;23.860;2022-08-07T02:13:33;8.00;;;7.07;;
42598;SDS011;28225;42.714;23.860;2022-08-07T02:15:59;8.77;;;6.43;;
42598;SDS011;28225;42.714;23.860;2022-08-07T02:18:27;9.18;;;7.72;;
42598;SDS011;28225;42.714;23.860;2022-08-07T02:20:54;9.02;;;7.05;;
42598;SDS011;28225;42.714;23.860;2022-08-07T02:23:20;8.10;;;6.65;;
42598;SDS011;28225;42.714;23.860;2022-08-07T02:25:46;7.05;;;6.35;;
42598;SDS011;28225;42.714;23.860;2022-08-07T02:28:13;7.82;;;6.55;;
42598;SDS011;28225;42.714;23.860;2022-08-07T02:30:39;7.13;;;6.28;;
42598;SDS011;28225;42.714;23.860;2022-08-07T02:33:05;8.68;;;6.70;;
42598;SDS011;28225;42.714;23.860;2022-08-07T02:35:32;7.60;;;6.78;;
42598;SDS011;28225;42.714;23.860;2022-08-07T02:37:59;8.38;;;6.90;;
42598;SDS011;28225;42.714;23.860;2022-08-07T02:40:25;8.13;;;6.75;;
42598;SDS011;28225;42.714;23.860;2022-08-07T02:42:51;8.68;;;7.22;;
42598;SDS011;28225;42.714;23.860;2022-08-07T02:45:18;8.00;;;6.43;;
42598;SDS011;28225;42.714;23.860;2022-08-07T02:47:44;7.57;;;6.05;;
42598;SDS011;28225;42.714;23.860;2022-08-07T02:50:10;10.50;;;6.85;;
42598;SDS011;28225;42.714;23.860;2022-08-07T02:55:09;9.18;;;7.03;;
42598;SDS011;28225;42.714;23.860;2022-08-07T02:57:38;8.43;;;7.00;;
42598;SDS011;28225;42.714;23.860;2022-08-07T03:00:04;9.00;;;7.05;;
42598;SDS011;28225;42.714;23.860;2022-08-07T03:02:31;8.27;;;7.43;;
42598;SDS011;28225;42.714;23.860;2022-08-07T03:04:58;8.13;;;7.30;;
42598;SDS011;28225;42.714;23.860;2022-08-07T03:07:24;7.88;;;7.05;;
42598;SDS011;28225;42.714;23.860;2022-08-07T03:09:50;8.45;;;6.85;;
42598;SDS011;28225;42.714;23.860;2022-08-07T03:12:16;7.28;;;6.57;;
42598;SDS011;28225;42.714;23.860;2022-08-07T03:14:42;9.57;;;7.47;;
42598;SDS011;28225;42.714;23.860;2022-08-07T03:17:08;7.28;;;6.57;;
42598;SDS011;28225;42.714;23.860;2022-08-07T03:19:34;8.10;;;6.47;;
42598;SDS011;28225;42.714;23.860;2022-08-07T03:22:01;11.27;;;6.95;;
42598;SDS011;28225;42.714;23.860;2022-08-07T03:24:28;8.60;;;6.95;;
42598;SDS011;28225;42.714;23.860;2022-08-07T03:26:55;10.60;;;7.45;;
42598;SDS011;28225;42.714;23.860;2022-08-07T03:31:48;9.18;;;6.85;;
42598;SDS011;28225;42.714;23.860;2022-08-07T03:34:16;8.57;;;6.75;;
42598;SDS011;28225;42.714;23.860;2022-08-07T03:36:42;9.40;;;7.28;;
42598;SDS011;28225;42.714;23.860;2022-08-07T03:39:08;9.95;;;7.88;;
42598;SDS011;28225;42.714;23.860;2022-08-07T03:41:36;9.90;;;7.75;;
42598;SDS011;28225;42.714;23.860;2022-08-07T03:44:02;10.77;;;7.35;;
42598;SDS011;28225;42.714;23.860;2022-08-07T03:46:28;10.88;;;8.23;;
42598;SDS011;28225;42.714;23.860;2022-08-07T03:48:55;9.45;;;7.68;;
42598;SDS011;28225;42.714;23.860;2022-08-07T03:51:20;10.07;;;7.40;;
42598;SDS011;28225;42.714;23.860;2022-08-07T03:53:46;9.15;;;7.70;;
42598;SDS011;28225;42.714;23.860;2022-08-07T03:56:13;9.52;;;7.72;;
42598;SDS011;28225;42.714;23.860;2022-08-07T03:58:40;11.02;;;7.65;;
42598;SDS011;28225;42.714;23.860;2022-08-07T04:01:07;12.63;;;9.85;;
42598;SDS011;28225;42.714;23.860;2022-08-07T04:03:34;16.03;;;9.07;;
42598;SDS011;28225;42.714;23.860;2022-08-07T04:06:00;10.70;;;8.52;;
42598;SDS011;28225;42.714;23.860;2022-08-07T04:08:25;8.43;;;7.25;;
42598;SDS011;28225;42.714;23.860;2022-08-07T04:10:51;12.40;;;8.75;;
42598;SDS011;28225;42.714;23.860;2022-08-07T04:13:17;11.02;;;8.73;;
42598;SDS011;28225;42.714;23.860;2022-08-07T04:15:43;12.98;;;9.70;;
42598;SDS011;28225;42.714;23.860;2022-08-07T04:18:10;12.65;;;8.48;;
42598;SDS011;28225;42.714;23.860;2022-08-07T04:23:03;8.68;;;7.22;;
42598;SDS011;28225;42.714;23.860;2022-08-07T04:25:29;10.38;;;7.72;;
42598;SDS011;28225;42.714;23.860;2022-08-07T04:27:54;7.82;;;7.03;;
42598;SDS011;28225;42.714;23.860;2022-08-07T04:30:20;8.55;;;6.80;;
42598;SDS011;28225;42.714;23.860;2022-08-07T04:32:45;8.93;;;7.45;;
42598;SDS011;28225;42.714;23.860;2022-08-07T04:35:11;8.73;;;7.00;;
42598;SDS011;28225;42.714;23.860;2022-08-07T04:37:37;10.98;;;7.55;;
42598;SDS011;28225;42.714;23.860;2022-08-07T04:40:03;8.18;;;6.82;;
42598;SDS011;28225;42.714;23.860;2022-08-07T04:42:28;11.52;;;8.25;;
42598;SDS011;28225;42.714;23.860;2022-08-07T04:44:59;8.43;;;7.10;;
42598;SDS011;28225;42.714;23.860;2022-08-07T04:50:33;9.25;;;7.13;;
42598;SDS011;28225;42.714;23.860;2022-08-07T04:53:13;8.65;;;6.85;;
42598;SDS011;28225;42.714;23.860;2022-08-07T04:58:18;11.98;;;7.78;;
42598;SDS011;28225;42.714;23.860;2022-08-07T05:01:30;9.43;;;7.95;;
42598;SDS011;28225;42.714;23.860;2022-08-07T05:11:54;11.07;;;7.90;;
42598;SDS011;28225;42.714;23.860;2022-08-07T05:14:31;10.35;;;7.05;;
42598;SDS011;28225;42.714;23.860;2022-08-07T05:17:01;9.20;;;6.95;;
42598;SDS011;28225;42.714;23.860;2022-08-07T05:19:33;9.75;;;7.95;;
42598;SDS011;28225;42.714;23.860;2022-08-07T05:22:01;11.27;;;8.50;;
42598;SDS011;28225;42.714;23.860;2022-08-07T05:24:28;11.20;;;7.70;;
42598;SDS011;28225;42.714;23.860;2022-08-07T05:26:56;11.55;;;7.53;;
42598;SDS011;28225;42.714;23.860;2022-08-07T05:29:23;9.27;;;8.15;;
42598;SDS011;28225;42.714;23.860;2022-08-07T05:31:49;9.98;;;8.05;;
42598;SDS011;28225;42.714;23.860;2022-08-07T05:34:15;10.43;;;7.40;;
42598;SDS011;28225;42.714;23.860;2022-08-07T05:36:42;21.00;;;18.75;;
42598;SDS011;28225;42.714;23.860;2022-08-07T05:39:10;13.35;;;11.48;;
42598;SDS011;28225;42.714;23.860;2022-08-07T05:41:39;14.27;;;11.00;;
42598;SDS011;28225;42.714;23.860;2022-08-07T05:44:07;11.02;;;9.25;;
42598;SDS011;28225;42.714;23.860;2022-08-07T05:46:33;9.15;;;7.53;;
42598;SDS011;28225;42.714;23.860;2022-08-07T05:49:04;16.35;;;10.02;;
42598;SDS011;28225;42.714;23.860;2022-08-07T05:51:30;12.50;;;10.77;;
42598;SDS011;28225;42.714;23.860;2022-08-07T05:53:56;10.02;;;9.02;;
42598;SDS011;28225;42.714;23.860;2022-08-07T05:56:21;8.55;;;7.65;;
42598;SDS011;28225;42.714;23.860;2022-08-07T05:58:48;8.57;;;7.57;;
42598;SDS011;28225;42.714;23.860;2022-08-07T06:01:15;8.93;;;7.28;;
42598;SDS011;28225;42.714;23.860;2022-08-07T06:03:49;8.27;;;7.15;;
42598;SDS011;28225;42.714;23.860;2022-08-07T06:06:16;8.93;;;6.75;;
42598;SDS011;28225;42.714;23.860;2022-08-07T06:08:41;8.30;;;5.95;;
42598;SDS011;28225;42.714;23.860;2022-08-07T06:11:07;7.13;;;6.43;;
42598;SDS011;28225;42.714;23.860;2022-08-07T06:13:36;7.15;;;6.13;;
42598;SDS011;28225;42.714;23.860;2022-08-07T06:16:02;6.45;;;5.85;;
42598;SDS011;28225;42.714;23.860;2022-08-07T06:18:29;8.25;;;6.35;;
42598;SDS011;28225;42.714;23.860;2022-08-07T06:20:57;7.78;;;6.53;;
42598;SDS011;28225;42.714;23.860;2022-08-07T06:23:25;9.20;;;6.35;;
42598;SDS011;28225;42.714;23.860;2022-08-07T06:25:51;7.82;;;5.70;;
42598;SDS011;28225;42.714;23.860;2022-08-07T06:28:17;8.82;;;5.53;;
42598;SDS011;28225;42.714;23.860;2022-08-07T06:30:43;6.57;;;5.97;;
42598;SDS011;28225;42.714;23.860;2022-08-07T06:33:08;7.30;;;6.07;;
42598;SDS011;28225;42.714;23.860;2022-08-07T06:35:34;7.10;;;6.40;;
42598;SDS011;28225;42.714;23.860;2022-08-07T06:38:01;7.57;;;5.82;;
42598;SDS011;28225;42.714;23.860;2022-08-07T06:40:29;7.35;;;6.20;;
42598;SDS011;28225;42.714;23.860;2022-08-07T06:42:55;7.65;;;6.10;;
42598;SDS011;28225;42.714;23.860;2022-08-07T06:45:21;8.55;;;7.40;;
42598;SDS011;28225;42.714;23.860;2022-08-07T06:47:48;7.90;;;6.30;;
42598;SDS011;28225;42.714;23.860;2022-08-07T06:50:13;7.22;;;6.00;;
42598;SDS011;28225;42.714;23.860;2022-08-07T06:52:41;9.02;;;6.80;;
42598;SDS011;28225;42.714;23.860;2022-08-07T06:55:18;6.50;;;5.90;;
42598;SDS011;28225;42.714;23.860;2022-08-07T07:00:12;7.20;;;6.30;;
42598;SDS011;28225;42.714;23.860;2022-08-07T07:02:38;7.53;;;6.28;;
42598;SDS011;28225;42.714;23.860;2022-08-07T07:05:06;7.25;;;6.53;;
42598;SDS011;28225;42.714;23.860;2022-08-07T07:07:31;6.53;;;5.90;;
42598;SDS011;28225;42.714;23.860;2022-08-07T07:09:57;7.22;;;6.53;;
42598;SDS011;28225;42.714;23.860;2022-08-07T07:18:18;7.65;;;6.05;;
42598;SDS011;28225;42.714;23.860;2022-08-07T07:20:43;8.02;;;7.00;;
42598;SDS011;28225;42.714;23.860;2022-08-07T07:23:11;11.13;;;7.35;;
42598;SDS011;28225;42.714;23.860;2022-08-07T07:25:38;9.43;;;6.50;;
42598;SDS011;28225;42.714;23.860;2022-08-07T07:28:23;9.48;;;7.53;;
42598;SDS011;28225;42.714;23.860;2022-08-07T07:31:03;8.63;;;7.00;;
42598;SDS011;28225;42.714;23.860;2022-08-07T07:33:31;13.10;;;7.63;;
42598;SDS011;28225;42.714;23.860;2022-08-07T07:35:58;8.57;;;6.93;;
42598;SDS011;28225;42.714;23.860;2022-08-07T07:38:24;11.05;;;8.38;;
42598;SDS011;28225;42.714;23.860;2022-08-07T07:40:50;12.65;;;8.05;;
42598;SDS011;28225;42.714;23.860;2022-08-07T07:43:19;9.40;;;7.05;;
42598;SDS011;28225;42.714;23.860;2022-08-07T07:45:46;8.52;;;7.13;;
42598;SDS011;28225;42.714;23.860;2022-08-07T07:48:13;8.82;;;6.82;;
42598;SDS011;28225;42.714;23.860;2022-08-07T07:50:41;7.07;;;6.38;;
42598;SDS011;28225;42.714;23.860;2022-08-07T07:53:08;9.57;;;6.78;;
42598;SDS011;28225;42.714;23.860;2022-08-07T07:55:34;7.53;;;6.53;;
42598;SDS011;28225;42.714;23.860;2022-08-07T07:58:00;7.80;;;7.05;;
42598;SDS011;28225;42.714;23.860;2022-08-07T08:00:26;7.60;;;6.60;;
42598;SDS011;28225;42.714;23.860;2022-08-07T08:02:52;7.80;;;6.80;;
42598;SDS011;28225;42.714;23.860;2022-08-07T08:07:46;8.15;;;6.10;;
42598;SDS011;28225;42.714;23.860;2022-08-07T08:10:12;6.57;;;5.95;;
42598;SDS011;28225;42.714;23.860;2022-08-07T08:12:38;12.23;;;6.65;;
42598;SDS011;28225;42.714;23.860;2022-08-07T08:15:04;7.05;;;6.35;;
42598;SDS011;28225;42.714;23.860;2022-08-07T08:17:30;7.38;;;6.68;;
42598;SDS011;28225;42.714;23.860;2022-08-07T08:20:00;7.35;;;6.63;;
42598;SDS011;28225;42.714;23.860;2022-08-07T08:22:28;7.45;;;6.68;;
42598;SDS011;28225;42.714;23.860;2022-08-07T08:25:12;10.10;;;7.45;;
42598;SDS011;28225;42.714;23.860;2022-08-07T08:27:57;8.07;;;6.28;;
42598;SDS011;28225;42.714;23.860;2022-08-07T08:30:25;7.72;;;6.47;;
42598;SDS011;28225;42.714;23.860;2022-08-07T08:32:52;7.78;;;6.97;;
42598;SDS011;28225;42.714;23.860;2022-08-07T08:35:19;8.20;;;6.90;;
42598;SDS011;28225;42.714;23.860;2022-08-07T08:40:52;9.23;;;6.68;;
42598;SDS011;28225;42.714;23.860;2022-08-07T08:43:39;6.75;;;6.15;;
42598;SDS011;28225;42.714;23.860;2022-08-07T08:51:58;11.25;;;7.55;;
42598;SDS011;28225;42.714;23.860;2022-08-07T08:54:31;6.65;;;5.93;;
42598;SDS011;28225;42.714;23.860;2022-08-07T08:57:06;7.20;;;6.50;;
42598;SDS011;28225;42.714;23.860;2022-08-07T09:02:12;7.13;;;5.57;;
42598;SDS011;28225;42.714;23.860;2022-08-07T09:05:20;7.07;;;5.32;;
42598;SDS011;28225;42.714;23.860;2022-08-07T09:16:20;6.60;;;5.93;;
42598;SDS011;28225;42.714;23.860;2022-08-07T09:19:01;7.68;;;6.28;;
42598;SDS011;28225;42.714;23.860;2022-08-07T09:27:28;6.35;;;5.78;;
42598;SDS011;28225;42.714;23.860;2022-08-07T09:30:21;6.55;;;5.40;;
42598;SDS011;28225;42.714;23.860;2022-08-07T09:36:21;5.20;;;4.70;;
42598;SDS011;28225;42.714;23.860;2022-08-07T09:41:45;5.28;;;4.70;;
42598;SDS011;28225;42.714;23.860;2022-08-07T09:44:51;5.75;;;5.25;;
42598;SDS011;28225;42.714;23.860;2022-08-07T09:50:55;5.90;;;4.43;;
42598;SDS011;28225;42.714;23.860;2022-08-07T09:59:00;6.25;;;3.92;;
42598;SDS011;28225;42.714;23.860;2022-08-07T10:04:48;4.18;;;3.78;;
42598;SDS011;28225;42.714;23.860;2022-08-07T10:10:41;9.40;;;4.20;;
42598;SDS011;28225;42.714;23.860;2022-08-07T10:13:18;5.40;;;4.32;;
42598;SDS011;28225;42.714;23.860;2022-08-07T10:16:10;5.63;;;3.90;;
42598;SDS011;28225;42.714;23.860;2022-08-07T10:19:16;4.57;;;4.18;;
42598;SDS011;28225;42.714;23.860;2022-08-07T10:27:52;5.20;;;4.70;;
42598;SDS011;28225;42.714;23.860;2022-08-07T10:33:29;4.53;;;4.13;;
42598;SDS011;28225;42.714;23.860;2022-08-07T10:36:24;4.22;;;3.88;;
42598;SDS011;28225;42.714;23.860;2022-08-07T10:41:50;5.07;;;4.57;;
42598;SDS011;28225;42.714;23.860;2022-08-07T10:47:02;5.68;;;5.00;;
42598;SDS011;28225;42.714;23.860;2022-08-07T10:49:39;5.82;;;4.95;;
42598;SDS011;28225;42.714;23.860;2022-08-07T10:52:11;9.38;;;5.18;;
42598;SDS011;28225;42.714;23.860;2022-08-07T11:00:54;5.32;;;4.90;;
42598;SDS011;28225;42.714;23.860;2022-08-07T11:03:28;5.22;;;4.72;;
42598;SDS011;28225;42.714;23.860;2022-08-07T11:08:38;6.10;;;5.07;;
42598;SDS011;28225;42.714;23.860;2022-08-07T11:13:48;8.15;;;5.57;;
42598;SDS011;28225;42.714;23.860;2022-08-07T11:16:21;5.95;;;5.35;;
42598;SDS011;28225;42.714;23.860;2022-08-07T11:24:29;6.38;;;5.78;;
42598;SDS011;28225;42.714;23.860;2022-08-07T11:27:08;7.05;;;5.75;;
42598;SDS011;28225;42.714;23.860;2022-08-07T11:32:17;7.57;;;5.93;;
42598;SDS011;28225;42.714;23.860;2022-08-07T11:34:57;9.32;;;5.88;;
42598;SDS011;28225;42.714;23.860;2022-08-07T11:43:33;6.32;;;5.38;;
42598;SDS011;28225;42.714;23.860;2022-08-07T11:49:24;7.05;;;5.47;;
42598;SDS011;28225;42.714;23.860;2022-08-07T12:00:16;7.95;;;5.50;;
42598;SDS011;28225;42.714;23.860;2022-08-07T12:13:55;7.90;;;5.78;;
42598;SDS011;28225;42.714;23.860;2022-08-07T12:16:29;11.60;;;6.43;;
42598;SDS011;28225;42.714;23.860;2022-08-07T12:24:53;11.23;;;6.93;;
42598;SDS011;28225;42.714;23.860;2022-08-07T12:27:40;7.95;;;6.63;;
42598;SDS011;28225;42.714;23.860;2022-08-07T12:30:10;6.03;;;5.43;;
42598;SDS011;28225;42.714;23.860;2022-08-07T12:32:51;9.95;;;7.18;;
42598;SDS011;28225;42.714;23.860;2022-08-07T12:35:23;6.32;;;5.78;;
42598;SDS011;28225;42.714;23.860;2022-08-07T12:37:50;7.63;;;5.90;;
42598;SDS011;28225;42.714;23.860;2022-08-07T12:40:21;6.80;;;5.70;;
42598;SDS011;28225;42.714;23.860;2022-08-07T12:42:53;6.70;;;6.00;;
42598;SDS011;28225;42.714;23.860;2022-08-07T12:45:21;6.38;;;5.78;;
42598;SDS011;28225;42.714;23.860;2022-08-07T12:48:08;7.28;;;5.97;;
42598;SDS011;28225;42.714;23.860;2022-08-07T12:50:57;6.72;;;6.13;;
42598;SDS011;28225;42.714;23.860;2022-08-07T12:53:57;6.20;;;5.32;;
42598;SDS011;28225;42.714;23.860;2022-08-07T12:56:35;6.72;;;5.82;;
42598;SDS011;28225;42.714;23.860;2022-08-07T12:59:14;6.93;;;6.22;;
42598;SDS011;28225;42.714;23.860;2022-08-07T13:12:36;6.57;;;5.53;;
42598;SDS011;28225;42.714;23.860;2022-08-07T13:15:27;6.50;;;5.78;;
42598;SDS011;28225;42.714;23.860;2022-08-07T13:18:13;6.90;;;6.20;;
42598;SDS011;28225;42.714;23.860;2022-08-07T13:29:10;6.53;;;4.88;;
42598;SDS011;28225;42.714;23.860;2022-08-07T13:34:39;7.47;;;5.20;;
42598;SDS011;28225;42.714;23.860;2022-08-07T13:37:12;6.43;;;5.35;;
42598;SDS011;28225;42.714;23.860;2022-08-07T13:42:24;8.88;;;6.28;;
42598;SDS011;28225;42.714;23.860;2022-08-07T13:44:51;6.78;;;6.13;;
42598;SDS011;28225;42.714;23.860;2022-08-07T13:47:18;30.60;;;7.47;;
42598;SDS011;28225;42.714;23.860;2022-08-07T13:49:44;9.68;;;6.50;;
42598;SDS011;28225;42.714;23.860;2022-08-07T13:52:12;18.73;;;6.78;;
42598;SDS011;28225;42.714;23.860;2022-08-07T13:54:38;17.17;;;6.40;;
42598;SDS011;28225;42.714;23.860;2022-08-07T13:57:05;14.68;;;6.90;;
42598;SDS011;28225;42.714;23.860;2022-08-07T13:59:39;13.88;;;6.40;;
42598;SDS011;28225;42.714;23.860;2022-08-07T14:02:08;8.50;;;5.97;;
42598;SDS011;28225;42.714;23.860;2022-08-07T14:04:47;12.02;;;6.32;;
42598;SDS011;28225;42.714;23.860;2022-08-07T14:07:15;6.57;;;5.70;;
42598;SDS011;28225;42.714;23.860;2022-08-07T14:09:45;8.30;;;6.15;;
42598;SDS011;28225;42.714;23.860;2022-08-07T14:14:59;9.27;;;6.05;;
42598;SDS011;28225;42.714;23.860;2022-08-07T14:17:29;8.82;;;7.18;;
42598;SDS011;28225;42.714;23.860;2022-08-07T14:20:12;11.45;;;6.43;;
42598;SDS011;28225;42.714;23.860;2022-08-07T14:22:43;7.80;;;6.28;;
42598;SDS011;28225;42.714;23.860;2022-08-07T14:25:17;8.15;;;6.30;;
42598;SDS011;28225;42.714;23.860;2022-08-07T14:27:49;9.45;;;6.15;;
42598;SDS011;28225;42.714;23.860;2022-08-07T14:30:15;9.50;;;7.68;;
42598;SDS011;28225;42.714;23.860;2022-08-07T14:32:42;6.93;;;6.25;;
42598;SDS011;28225;42.714;23.860;2022-08-07T14:35:19;8.48;;;6.93;;
42598;SDS011;28225;42.714;23.860;2022-08-07T14:37:50;9.05;;;6.68;;
42598;SDS011;28225;42.714;23.860;2022-08-07T14:40:18;8.77;;;6.05;;
42598;SDS011;28225;42.714;23.860;2022-08-07T14:42:54;8.55;;;6.20;;
42598;SDS011;28225;42.714;23.860;2022-08-07T14:45:24;9.82;;;6.18;;
42598;SDS011;28225;42.714;23.860;2022-08-07T14:47:53;14.13;;;6.20;;
42598;SDS011;28225;42.714;23.860;2022-08-07T14:50:20;8.35;;;6.18;;
42598;SDS011;28225;42.714;23.860;2022-08-07T14:52:47;7.35;;;6.28;;
42598;SDS011;28225;42.714;23.860;2022-08-07T14:55:14;7.90;;;6.85;;
42598;SDS011;28225;42.714;23.860;2022-08-07T14:57:40;7.18;;;6.43;;
42598;SDS011;28225;42.714;23.860;2022-08-07T15:00:07;10.52;;;7.00;;
42598;SDS011;28225;42.714;23.860;2022-08-07T15:02:35;15.60;;;7.20;;
42598;SDS011;28225;42.714;23.860;2022-08-07T15:05:01;9.27;;;6.57;;
42598;SDS011;28225;42.714;23.860;2022-08-07T15:07:27;7.55;;;6.70;;
42598;SDS011;28225;42.714;23.860;2022-08-07T15:09:54;8.48;;;6.28;;
42598;SDS011;28225;42.714;23.860;2022-08-07T15:12:22;7.38;;;6.60;;
42598;SDS011;28225;42.714;23.860;2022-08-07T15:14:50;10.90;;;6.93;;
42598;SDS011;28225;42.714;23.860;2022-08-07T15:17:20;15.90;;;7.47;;
42598;SDS011;28225;42.714;23.860;2022-08-07T15:19:56;11.23;;;7.13;;
42598;SDS011;28225;42.714;23.860;2022-08-07T15:22:26;12.82;;;7.47;;
42598;SDS011;28225;42.714;23.860;2022-08-07T15:24:53;7.50;;;6.53;;
42598;SDS011;28225;42.714;23.860;2022-08-07T15:27:21;7.78;;;6.90;;
42598;SDS011;28225;42.714;23.860;2022-08-07T15:29:51;8.93;;;7.25;;
42598;SDS011;28225;42.714;23.860;2022-08-07T15:32:19;8.65;;;6.70;;
42598;SDS011;28225;42.714;23.860;2022-08-07T15:34:46;16.70;;;7.22;;
42598;SDS011;28225;42.714;23.860;2022-08-07T15:37:15;9.68;;;7.05;;
42598;SDS011;28225;42.714;23.860;2022-08-07T15:39:45;7.43;;;6.65;;
42598;SDS011;28225;42.714;23.860;2022-08-07T15:45:02;7.30;;;6.60;;
42598;SDS011;28225;42.714;23.860;2022-08-07T15:47:31;9.10;;;6.40;;
42598;SDS011;28225;42.714;23.860;2022-08-07T15:49:58;7.68;;;6.97;;
42598;SDS011;28225;42.714;23.860;2022-08-07T15:52:24;7.93;;;7.13;;
42598;SDS011;28225;42.714;23.860;2022-08-07T15:54:50;7.18;;;6.43;;
42598;SDS011;28225;42.714;23.860;2022-08-07T15:57:19;8.85;;;6.82;;
42598;SDS011;28225;42.714;23.860;2022-08-07T15:59:48;7.55;;;6.75;;
42598;SDS011;28225;42.714;23.860;2022-08-07T16:02:37;7.13;;;6.43;;
42598;SDS011;28225;42.714;23.860;2022-08-07T16:05:20;8.73;;;7.38;;
42598;SDS011;28225;42.714;23.860;2022-08-07T16:19:05;8.45;;;7.32;;
42598;SDS011;28225;42.714;23.860;2022-08-07T16:24:45;14.60;;;7.80;;
42598;SDS011;28225;42.714;23.860;2022-08-07T16:27:20;8.30;;;7.25;;
42598;SDS011;28225;42.714;23.860;2022-08-07T16:30:06;8.63;;;7.68;;
42598;SDS011;28225;42.714;23.860;2022-08-07T16:32:34;8.85;;;7.38;;
42598;SDS011;28225;42.714;23.860;2022-08-07T17:09:13;7.10;;;6.40;;
42598;SDS011;28225;42.714;23.860;2022-08-07T17:11:50;15.55;;;6.88;;
42598;SDS011;28225;42.714;23.860;2022-08-07T17:20:28;8.13;;;6.60;;
42598;SDS011;28225;42.714;23.860;2022-08-07T17:22:59;9.55;;;7.22;;
42598;SDS011;28225;42.714;23.860;2022-08-07T17:25:30;8.98;;;7.45;;
42598;SDS011;28225;42.714;23.860;2022-08-07T17:28:10;8.52;;;7.60;;
42598;SDS011;28225;42.714;23.860;2022-08-07T17:31:23;8.18;;;7.10;;
42598;SDS011;28225;42.714;23.860;2022-08-07T17:33:34;9.52;;;6.70;;
42598;SDS011;28225;42.714;23.860;2022-08-07T17:36:22;8.38;;;7.50;;
42598;SDS011;28225;42.714;23.860;2022-08-07T17:38:53;8.70;;;6.57;;
42598;SDS011;28225;42.714;23.860;2022-08-07T17:41:44;10.13;;;6.25;;
42598;SDS011;28225;42.714;23.860;2022-08-07T17:47:02;8.85;;;7.43;;
42598;SDS011;28225;42.714;23.860;2022-08-07T17:54:46;7.60;;;6.53;;
42598;SDS011;28225;42.714;23.860;2022-08-07T18:00:06;8.73;;;6.78;;
42598;SDS011;28225;42.714;23.860;2022-08-07T18:02:42;8.40;;;6.47;;
42598;SDS011;28225;42.714;23.860;2022-08-07T18:05:27;6.93;;;6.22;;
42598;SDS011;28225;42.714;23.860;2022-08-07T18:08:12;7.90;;;6.70;;
42598;SDS011;28225;42.714;23.860;2022-08-07T18:16:02;8.25;;;7.22;;
42598;SDS011;28225;42.714;23.860;2022-08-07T18:21:20;10.82;;;8.18;;
42598;SDS011;28225;42.714;23.860;2022-08-07T18:57:36;9.95;;;7.55;;
42598;SDS011;28225;42.714;23.860;2022-08-07T19:00:19;8.63;;;7.72;;
42598;SDS011;28225;42.714;23.860;2022-08-07T19:02:53;10.13;;;9.10;;
42598;SDS011;28225;42.714;23.860;2022-08-07T19:05:35;12.88;;;9.15;;
42598;SDS011;28225;42.714;23.860;2022-08-07T19:08:06;10.60;;;8.82;;
42598;SDS011;28225;42.714;23.860;2022-08-07T19:10:39;10.52;;;8.88;;
42598;SDS011;28225;42.714;23.860;2022-08-07T19:18:21;11.02;;;9.13;;
42598;SDS011;28225;42.714;23.860;2022-08-07T19:21:06;9.70;;;8.43;;
42598;SDS011;28225;42.714;23.860;2022-08-07T19:23:42;10.35;;;7.72;;
42598;SDS011;28225;42.714;23.860;2022-08-07T19:26:11;12.55;;;9.30;;
42598;SDS011;28225;42.714;23.860;2022-08-07T19:28:42;11.48;;;9.63;;
42598;SDS011;28225;42.714;23.860;2022-08-07T19:31:10;9.75;;;8.75;;
42598;SDS011;28225;42.714;23.860;2022-08-07T19:33:50;10.15;;;9.05;;
42598;SDS011;28225;42.714;23.860;2022-08-07T19:36:17;11.10;;;9.02;;
42598;SDS011;28225;42.714;23.860;2022-08-07T19:38:45;19.15;;;9.00;;
42598;SDS011;28225;42.714;23.860;2022-08-07T19:41:12;11.07;;;9.93;;